sensor_id;sensor_type;location;lat;lon;timestamp;P1;durP1;ratioP1;P2;durP2;ratioP2
62202;SDS011;48199;49.138;7.414;2024-03-23T00:52:49;0.70;;;0.70;;
62202;SDS011;48199;49.138;7.414;2024-03-23T00:55:15;0.70;;;0.70;;
62202;SDS011;48199;49.138;7.414;2024-03-23T00:57:40;1.13;;;0.97;;
62202;SDS011;48199;49.138;7.414;2024-03-23T01:00:05;2.33;;;1.23;;
62202;SDS011;48199;49.138;7.414;2024-03-23T01:02:31;0.70;;;0.70;;
62202;SDS011;48199;49.138;7.414;2024-03-23T01:04:56;0.10;;;0.10;;
62202;SDS011;48199;49.138;7.414;2024-03-23T01:07:22;0.40;;;0.40;;
62202;SDS011;48199;49.138;7.414;2024-03-23T01:09:47;0.10;;;0.10;;
62202;SDS011;48199;49.138;7.414;2024-03-23T01:12:12;0.53;;;0.50;;
62202;SDS011;48199;49.138;7.414;2024-03-23T01:14:37;0.68;;;0.68;;
62202;SDS011;48199;49.138;7.414;2024-03-23T01:17:02;0.87;;;0.63;;
62202;SDS011;48199;49.138;7.414;2024-03-23T01:19:28;0.43;;;0.43;;
62202;SDS011;48199;49.138;7.414;2024-03-23T01:21:53;0.20;;;0.20;;
62202;SDS011;48199;49.138;7.414;2024-03-23T01:24:18;0.20;;;0.20;;
62202;SDS011;48199;49.138;7.414;2024-03-23T01:26:43;1.53;;;0.83;;
62202;SDS011;48199;49.138;7.414;2024-03-23T01:29:08;1.07;;;0.93;;
62202;SDS011;48199;49.138;7.414;2024-03-23T01:31:34;0.80;;;0.80;;
62202;SDS011;48199;49.138;7.414;2024-03-23T01:33:59;1.17;;;1.07;;
62202;SDS011;48199;49.138;7.414;2024-03-23T01:36:24;1.13;;;1.03;;
62202;SDS011;48199;49.138;7.414;2024-03-23T01:38:50;0.80;;;0.80;;
62202;SDS011;48199;49.138;7.414;2024-03-23T01:41:15;0.70;;;0.70;;
62202;SDS011;48199;49.138;7.414;2024-03-23T01:43:40;0.87;;;0.87;;
62202;SDS011;48199;49.138;7.414;2024-03-23T01:46:06;0.82;;;0.82;;
62202;SDS011;48199;49.138;7.414;2024-03-23T01:48:31;0.82;;;0.82;;
62202;SDS011;48199;49.138;7.414;2024-03-23T01:50:56;1.03;;;1.03;;
62202;SDS011;48199;49.138;7.414;2024-03-23T01:53:22;1.10;;;0.40;;
62202;SDS011;48199;49.138;7.414;2024-03-23T01:55:48;1.08;;;0.98;;
62202;SDS011;48199;49.138;7.414;2024-03-23T01:58:14;0.47;;;0.47;;
62202;SDS011;48199;49.138;7.414;2024-03-23T02:00:39;0.80;;;0.80;;
62202;SDS011;48199;49.138;7.414;2024-03-23T02:03:21;1.67;;;0.83;;
62202;SDS011;48199;49.138;7.414;2024-03-23T02:05:46;0.30;;;0.30;;
62202;SDS011;48199;49.138;7.414;2024-03-23T02:08:12;1.13;;;1.02;;
62202;SDS011;48199;49.138;7.414;2024-03-23T02:10:37;1.03;;;0.97;;
62202;SDS011;48199;49.138;7.414;2024-03-23T02:13:03;1.30;;;1.08;;
62202;SDS011;48199;49.138;7.414;2024-03-23T02:15:28;1.25;;;1.17;;
62202;SDS011;48199;49.138;7.414;2024-03-23T02:17:53;1.73;;;1.63;;
62202;SDS011;48199;49.138;7.414;2024-03-23T02:20:18;0.73;;;0.70;;
62202;SDS011;48199;49.138;7.414;2024-03-23T02:22:44;2.03;;;1.83;;
62202;SDS011;48199;49.138;7.414;2024-03-23T02:25:09;1.03;;;0.77;;
62202;SDS011;48199;49.138;7.414;2024-03-23T02:27:34;2.33;;;1.42;;
62202;SDS011;48199;49.138;7.414;2024-03-23T02:30:01;1.35;;;1.25;;
62202;SDS011;48199;49.138;7.414;2024-03-23T02:32:26;1.33;;;1.23;;
62202;SDS011;48199;49.138;7.414;2024-03-23T02:34:51;1.20;;;0.97;;
62202;SDS011;48199;49.138;7.414;2024-03-23T02:37:16;0.87;;;0.70;;
62202;SDS011;48199;49.138;7.414;2024-03-23T02:39:41;4.22;;;1.50;;
62202;SDS011;48199;49.138;7.414;2024-03-23T02:42:07;1.60;;;1.50;;
62202;SDS011;48199;49.138;7.414;2024-03-23T02:44:32;1.83;;;1.70;;
62202;SDS011;48199;49.138;7.414;2024-03-23T02:46:57;1.43;;;1.33;;
62202;SDS011;48199;49.138;7.414;2024-03-23T02:49:22;0.90;;;0.80;;
62202;SDS011;48199;49.138;7.414;2024-03-23T02:51:48;3.33;;;0.73;;
62202;SDS011;48199;49.138;7.414;2024-03-23T02:54:16;0.80;;;0.80;;
62202;SDS011;48199;49.138;7.414;2024-03-23T02:56:41;0.70;;;0.60;;
62202;SDS011;48199;49.138;7.414;2024-03-23T02:59:06;0.30;;;0.30;;
62202;SDS011;48199;49.138;7.414;2024-03-23T03:01:31;1.50;;;1.33;;
62202;SDS011;48199;49.138;7.414;2024-03-23T03:03:56;7.82;;;1.35;;
62202;SDS011;48199;49.138;7.414;2024-03-23T03:06:23;0.88;;;0.82;;
62202;SDS011;48199;49.138;7.414;2024-03-23T03:08:48;1.02;;;1.02;;
62202;SDS011;48199;49.138;7.414;2024-03-23T03:11:13;0.90;;;0.90;;
62202;SDS011;48199;49.138;7.414;2024-03-23T03:13:38;0.93;;;0.90;;
62202;SDS011;48199;49.138;7.414;2024-03-23T03:16:05;0.10;;;0.10;;
62202;SDS011;48199;49.138;7.414;2024-03-23T03:18:33;1.20;;;0.88;;
62202;SDS011;48199;49.138;7.414;2024-03-23T03:20:58;0.60;;;0.60;;
62202;SDS011;48199;49.138;7.414;2024-03-23T03:23:23;1.00;;;0.88;;
62202;SDS011;48199;49.138;7.414;2024-03-23T03:25:49;0.30;;;0.30;;
62202;SDS011;48199;49.138;7.414;2024-03-23T03:28:14;0.40;;;0.40;;
62202;SDS011;48199;49.138;7.414;2024-03-23T03:30:39;0.93;;;0.83;;
62202;SDS011;48199;49.138;7.414;2024-03-23T03:33:04;0.23;;;0.23;;
62202;SDS011;48199;49.138;7.414;2024-03-23T03:35:30;0.33;;;0.33;;
62202;SDS011;48199;49.138;7.414;2024-03-23T03:37:55;1.55;;;0.73;;
62202;SDS011;48199;49.138;7.414;2024-03-23T03:40:20;0.10;;;0.10;;
62202;SDS011;48199;49.138;7.414;2024-03-23T03:42:45;0.60;;;0.60;;
62202;SDS011;48199;49.138;7.414;2024-03-23T03:45:11;2.03;;;0.97;;
62202;SDS011;48199;49.138;7.414;2024-03-23T03:47:36;0.30;;;0.30;;
62202;SDS011;48199;49.138;7.414;2024-03-23T03:50:01;0.67;;;0.67;;
62202;SDS011;48199;49.138;7.414;2024-03-23T03:52:26;0.00;;;0.00;;
62202;SDS011;48199;49.138;7.414;2024-03-23T03:54:55;0.30;;;0.30;;
62202;SDS011;48199;49.138;7.414;2024-03-23T03:57:20;0.00;;;0.00;;
62202;SDS011;48199;49.138;7.414;2024-03-23T03:59:45;0.10;;;0.10;;
62202;SDS011;48199;49.138;7.414;2024-03-23T04:02:10;0.10;;;0.10;;
62202;SDS011;48199;49.138;7.414;2024-03-23T04:04:36;0.10;;;0.10;;
62202;SDS011;48199;49.138;7.414;2024-03-23T04:07:01;0.20;;;0.07;;
62202;SDS011;48199;49.138;7.414;2024-03-23T04:09:27;0.55;;;0.45;;
62202;SDS011;48199;49.138;7.414;2024-03-23T04:11:52;0.00;;;0.00;;
62202;SDS011;48199;49.138;7.414;2024-03-23T04:14:17;0.00;;;0.00;;
62202;SDS011;48199;49.138;7.414;2024-03-23T04:16:42;0.00;;;0.00;;
62202;SDS011;48199;49.138;7.414;2024-03-23T04:19:07;0.10;;;0.10;;
62202;SDS011;48199;49.138;7.414;2024-03-23T04:21:33;0.00;;;0.00;;
62202;SDS011;48199;49.138;7.414;2024-03-23T04:23:59;0.00;;;0.00;;
62202;SDS011;48199;49.138;7.414;2024-03-23T04:26:24;0.50;;;0.30;;
62202;SDS011;48199;49.138;7.414;2024-03-23T04:28:50;0.10;;;0.10;;
62202;SDS011;48199;49.138;7.414;2024-03-23T04:31:15;0.00;;;0.00;;
62202;SDS011;48199;49.138;7.414;2024-03-23T04:33:40;0.00;;;0.00;;
62202;SDS011;48199;49.138;7.414;2024-03-23T04:36:05;0.20;;;0.20;;
62202;SDS011;48199;49.138;7.414;2024-03-23T04:38:32;0.00;;;0.00;;
62202;SDS011;48199;49.138;7.414;2024-03-23T04:40:58;0.10;;;0.10;;
62202;SDS011;48199;49.138;7.414;2024-03-23T04:43:23;0.15;;;0.15;;
62202;SDS011;48199;49.138;7.414;2024-03-23T04:45:49;0.10;;;0.10;;
62202;SDS011;48199;49.138;7.414;2024-03-23T04:48:14;0.00;;;0.00;;
62202;SDS011;48199;49.138;7.414;2024-03-23T04:50:39;0.00;;;0.00;;
62202;SDS011;48199;49.138;7.414;2024-03-23T04:53:12;0.03;;;0.03;;
62202;SDS011;48199;49.138;7.414;2024-03-23T04:55:37;0.17;;;0.17;;
62202;SDS011;48199;49.138;7.414;2024-03-23T04:58:02;0.00;;;0.00;;
62202;SDS011;48199;49.138;7.414;2024-03-23T05:00:28;0.05;;;0.05;;
62202;SDS011;48199;49.138;7.414;2024-03-23T05:02:53;0.00;;;0.00;;
62202;SDS011;48199;49.138;7.414;2024-03-23T05:05:18;0.10;;;0.10;;
62202;SDS011;48199;49.138;7.414;2024-03-23T05:07:43;0.10;;;0.10;;
62202;SDS011;48199;49.138;7.414;2024-03-23T05:10:09;0.00;;;0.00;;
62202;SDS011;48199;49.138;7.414;2024-03-23T05:12:36;0.00;;;0.00;;
62202;SDS011;48199;49.138;7.414;2024-03-23T05:15:01;0.75;;;0.30;;
62202;SDS011;48199;49.138;7.414;2024-03-23T05:17:27;0.00;;;0.00;;
62202;SDS011;48199;49.138;7.414;2024-03-23T05:19:53;0.00;;;0.00;;
62202;SDS011;48199;49.138;7.414;2024-03-23T05:22:18;0.00;;;0.00;;
62202;SDS011;48199;49.138;7.414;2024-03-23T05:24:44;0.00;;;0.00;;
62202;SDS011;48199;49.138;7.414;2024-03-23T05:27:09;0.00;;;0.00;;
62202;SDS011;48199;49.138;7.414;2024-03-23T05:29:35;0.00;;;0.00;;
62202;SDS011;48199;49.138;7.414;2024-03-23T05:32:00;0.00;;;0.00;;
62202;SDS011;48199;49.138;7.414;2024-03-23T05:34:25;0.00;;;0.00;;
62202;SDS011;48199;49.138;7.414;2024-03-23T05:36:50;0.10;;;0.10;;
62202;SDS011;48199;49.138;7.414;2024-03-23T05:39:16;0.00;;;0.00;;
62202;SDS011;48199;49.138;7.414;2024-03-23T05:41:47;0.17;;;0.17;;
62202;SDS011;48199;49.138;7.414;2024-03-23T05:44:12;0.00;;;0.00;;
62202;SDS011;48199;49.138;7.414;2024-03-23T05:46:37;0.00;;;0.00;;
62202;SDS011;48199;49.138;7.414;2024-03-23T05:49:03;0.00;;;0.00;;
62202;SDS011;48199;49.138;7.414;2024-03-23T05:51:28;0.10;;;0.10;;
62202;SDS011;48199;49.138;7.414;2024-03-23T05:53:53;0.00;;;0.00;;
62202;SDS011;48199;49.138;7.414;2024-03-23T05:56:19;0.10;;;0.10;;
62202;SDS011;48199;49.138;7.414;2024-03-23T05:58:45;1.38;;;0.35;;
62202;SDS011;48199;49.138;7.414;2024-03-23T06:01:11;0.00;;;0.00;;
62202;SDS011;48199;49.138;7.414;2024-03-23T06:03:36;0.20;;;0.20;;
62202;SDS011;48199;49.138;7.414;2024-03-23T06:06:02;0.13;;;0.13;;
62202;SDS011;48199;49.138;7.414;2024-03-23T06:08:27;0.00;;;0.00;;
62202;SDS011;48199;49.138;7.414;2024-03-23T06:10:52;0.00;;;0.00;;
62202;SDS011;48199;49.138;7.414;2024-03-23T06:13:17;0.00;;;0.00;;
62202;SDS011;48199;49.138;7.414;2024-03-23T06:15:47;0.00;;;0.00;;
62202;SDS011;48199;49.138;7.414;2024-03-23T06:18:14;0.05;;;0.05;;
62202;SDS011;48199;49.138;7.414;2024-03-23T06:20:39;0.20;;;0.20;;
62202;SDS011;48199;49.138;7.414;2024-03-23T06:23:04;0.00;;;0.00;;
62202;SDS011;48199;49.138;7.414;2024-03-23T06:25:29;0.00;;;0.00;;
62202;SDS011;48199;49.138;7.414;2024-03-23T06:27:55;0.00;;;0.00;;
62202;SDS011;48199;49.138;7.414;2024-03-23T06:30:20;0.00;;;0.00;;
62202;SDS011;48199;49.138;7.414;2024-03-23T06:32:45;0.00;;;0.00;;
62202;SDS011;48199;49.138;7.414;2024-03-23T06:35:18;0.10;;;0.10;;
62202;SDS011;48199;49.138;7.414;2024-03-23T06:37:43;0.00;;;0.00;;
62202;SDS011;48199;49.138;7.414;2024-03-23T06:40:08;0.10;;;0.10;;
62202;SDS011;48199;49.138;7.414;2024-03-23T06:42:35;0.00;;;0.00;;
62202;SDS011;48199;49.138;7.414;2024-03-23T06:45:00;2.45;;;0.55;;
62202;SDS011;48199;49.138;7.414;2024-03-23T06:47:25;0.00;;;0.00;;
62202;SDS011;48199;49.138;7.414;2024-03-23T06:49:50;0.00;;;0.00;;
62202;SDS011;48199;49.138;7.414;2024-03-23T06:52:16;0.10;;;0.10;;
62202;SDS011;48199;49.138;7.414;2024-03-23T06:54:41;0.00;;;0.00;;
62202;SDS011;48199;49.138;7.414;2024-03-23T06:57:06;0.00;;;0.00;;
62202;SDS011;48199;49.138;7.414;2024-03-23T06:59:32;0.55;;;0.55;;
62202;SDS011;48199;49.138;7.414;2024-03-23T07:01:57;0.00;;;0.00;;
62202;SDS011;48199;49.138;7.414;2024-03-23T07:04:22;0.40;;;0.40;;
62202;SDS011;48199;49.138;7.414;2024-03-23T07:06:47;0.23;;;0.23;;
62202;SDS011;48199;49.138;7.414;2024-03-23T07:09:13;0.00;;;0.00;;
62202;SDS011;48199;49.138;7.414;2024-03-23T07:11:38;1.67;;;0.80;;
62202;SDS011;48199;49.138;7.414;2024-03-23T07:14:03;0.30;;;0.27;;
62202;SDS011;48199;49.138;7.414;2024-03-23T07:16:28;0.00;;;0.00;;
62202;SDS011;48199;49.138;7.414;2024-03-23T07:18:54;0.10;;;0.10;;
62202;SDS011;48199;49.138;7.414;2024-03-23T07:21:19;0.30;;;0.30;;
62202;SDS011;48199;49.138;7.414;2024-03-23T07:23:44;1.10;;;1.00;;
62202;SDS011;48199;49.138;7.414;2024-03-23T07:26:10;0.30;;;0.30;;
62202;SDS011;48199;49.138;7.414;2024-03-23T07:28:35;0.10;;;0.10;;
62202;SDS011;48199;49.138;7.414;2024-03-23T07:31:01;0.00;;;0.00;;
62202;SDS011;48199;49.138;7.414;2024-03-23T07:33:27;0.73;;;0.73;;
62202;SDS011;48199;49.138;7.414;2024-03-23T07:35:52;0.00;;;0.00;;
62202;SDS011;48199;49.138;7.414;2024-03-23T07:38:18;0.10;;;0.10;;
62202;SDS011;48199;49.138;7.414;2024-03-23T07:40:43;0.10;;;0.10;;
62202;SDS011;48199;49.138;7.414;2024-03-23T07:43:08;0.37;;;0.33;;
62202;SDS011;48199;49.138;7.414;2024-03-23T07:45:33;1.07;;;0.57;;
62202;SDS011;48199;49.138;7.414;2024-03-23T07:47:59;0.20;;;0.20;;
62202;SDS011;48199;49.138;7.414;2024-03-23T07:50:24;0.37;;;0.37;;
62202;SDS011;48199;49.138;7.414;2024-03-23T07:52:49;0.00;;;0.00;;
62202;SDS011;48199;49.138;7.414;2024-03-23T07:55:14;0.00;;;0.00;;
62202;SDS011;48199;49.138;7.414;2024-03-23T07:57:40;0.10;;;0.10;;
62202;SDS011;48199;49.138;7.414;2024-03-23T08:00:05;0.83;;;0.80;;
62202;SDS011;48199;49.138;7.414;2024-03-23T08:02:31;0.85;;;0.38;;
62202;SDS011;48199;49.138;7.414;2024-03-23T08:04:56;2.33;;;0.40;;
62202;SDS011;48199;49.138;7.414;2024-03-23T08:07:21;0.20;;;0.20;;
62202;SDS011;48199;49.138;7.414;2024-03-23T08:09:47;0.53;;;0.37;;
62202;SDS011;48199;49.138;7.414;2024-03-23T08:12:12;0.98;;;0.82;;
62202;SDS011;48199;49.138;7.414;2024-03-23T08:14:37;0.40;;;0.40;;
62202;SDS011;48199;49.138;7.414;2024-03-23T08:17:02;0.20;;;0.20;;
62202;SDS011;48199;49.138;7.414;2024-03-23T08:19:27;0.10;;;0.10;;
62202;SDS011;48199;49.138;7.414;2024-03-23T08:21:53;0.33;;;0.20;;
62202;SDS011;48199;49.138;7.414;2024-03-23T08:24:19;0.25;;;0.25;;
62202;SDS011;48199;49.138;7.414;2024-03-23T08:26:44;0.93;;;0.55;;
62202;SDS011;48199;49.138;7.414;2024-03-23T08:29:10;0.10;;;0.10;;
62202;SDS011;48199;49.138;7.414;2024-03-23T08:31:35;0.40;;;0.37;;
62202;SDS011;48199;49.138;7.414;2024-03-23T08:34:00;0.33;;;0.33;;
62202;SDS011;48199;49.138;7.414;2024-03-23T08:36:25;0.20;;;0.20;;
62202;SDS011;48199;49.138;7.414;2024-03-23T08:38:50;0.50;;;0.50;;
62202;SDS011;48199;49.138;7.414;2024-03-23T08:41:18;0.70;;;0.57;;
62202;SDS011;48199;49.138;7.414;2024-03-23T08:43:44;0.87;;;0.60;;
62202;SDS011;48199;49.138;7.414;2024-03-23T08:46:10;0.10;;;0.10;;
62202;SDS011;48199;49.138;7.414;2024-03-23T08:48:36;3.00;;;0.40;;
62202;SDS011;48199;49.138;7.414;2024-03-23T08:51:09;0.10;;;0.10;;
62202;SDS011;48199;49.138;7.414;2024-03-23T08:53:34;1.65;;;0.52;;
62202;SDS011;48199;49.138;7.414;2024-03-23T08:56:00;0.10;;;0.10;;
62202;SDS011;48199;49.138;7.414;2024-03-23T08:58:26;0.00;;;0.00;;
62202;SDS011;48199;49.138;7.414;2024-03-23T09:00:51;0.00;;;0.00;;
62202;SDS011;48199;49.138;7.414;2024-03-23T09:03:17;0.75;;;0.57;;
62202;SDS011;48199;49.138;7.414;2024-03-23T09:05:42;0.10;;;0.10;;
62202;SDS011;48199;49.138;7.414;2024-03-23T09:08:07;0.10;;;0.10;;
62202;SDS011;48199;49.138;7.414;2024-03-23T09:10:39;0.28;;;0.28;;
62202;SDS011;48199;49.138;7.414;2024-03-23T09:13:11;0.45;;;0.45;;
62202;SDS011;48199;49.138;7.414;2024-03-23T09:15:37;0.00;;;0.00;;
62202;SDS011;48199;49.138;7.414;2024-03-23T09:41:59;0.00;;;0.00;;
62202;SDS011;48199;49.138;7.414;2024-03-23T09:45:29;0.10;;;0.10;;
62202;SDS011;48199;49.138;7.414;2024-03-23T09:48:59;0.30;;;0.25;;
62202;SDS011;48199;49.138;7.414;2024-03-23T09:52:24;0.10;;;0.10;;
62202;SDS011;48199;49.138;7.414;2024-03-23T09:55:48;0.22;;;0.22;;
62202;SDS011;48199;49.138;7.414;2024-03-23T09:59:12;0.00;;;0.00;;
62202;SDS011;48199;49.138;7.414;2024-03-23T10:02:37;0.40;;;0.40;;
62202;SDS011;48199;49.138;7.414;2024-03-23T10:06:08;2.33;;;0.60;;
62202;SDS011;48199;49.138;7.414;2024-03-23T10:09:38;0.60;;;0.60;;
62202;SDS011;48199;49.138;7.414;2024-03-23T10:13:02;0.28;;;0.28;;
62202;SDS011;48199;49.138;7.414;2024-03-23T10:16:25;0.00;;;0.00;;
62202;SDS011;48199;49.138;7.414;2024-03-23T10:19:50;0.25;;;0.25;;
62202;SDS011;48199;49.138;7.414;2024-03-23T10:23:16;0.08;;;0.08;;
62202;SDS011;48199;49.138;7.414;2024-03-23T10:26:40;0.13;;;0.10;;
62202;SDS011;48199;49.138;7.414;2024-03-23T10:30:08;0.90;;;0.70;;
62202;SDS011;48199;49.138;7.414;2024-03-23T10:33:36;0.08;;;0.08;;
62202;SDS011;48199;49.138;7.414;2024-03-23T10:37:01;0.30;;;0.30;;
62202;SDS011;48199;49.138;7.414;2024-03-23T10:40:26;0.20;;;0.20;;
62202;SDS011;48199;49.138;7.414;2024-03-23T10:43:52;0.10;;;0.10;;
62202;SDS011;48199;49.138;7.414;2024-03-23T10:47:18;0.50;;;0.40;;
62202;SDS011;48199;49.138;7.414;2024-03-23T10:50:42;0.10;;;0.08;;
62202;SDS011;48199;49.138;7.414;2024-03-23T10:54:06;0.13;;;0.13;;
62202;SDS011;48199;49.138;7.414;2024-03-23T10:57:37;0.00;;;0.00;;
62202;SDS011;48199;49.138;7.414;2024-03-23T11:01:12;0.40;;;0.35;;
62202;SDS011;48199;49.138;7.414;2024-03-23T11:04:46;0.98;;;0.65;;
62202;SDS011;48199;49.138;7.414;2024-03-23T11:08:28;0.00;;;0.00;;
62202;SDS011;48199;49.138;7.414;2024-03-23T11:12:48;0.00;;;0.00;;
62202;SDS011;48199;49.138;7.414;2024-03-23T11:15:55;0.10;;;0.10;;
62202;SDS011;48199;49.138;7.414;2024-03-23T11:19:37;0.00;;;0.00;;
62202;SDS011;48199;49.138;7.414;2024-03-23T11:23:01;0.10;;;0.10;;
62202;SDS011;48199;49.138;7.414;2024-03-23T11:26:40;0.10;;;0.10;;
62202;SDS011;48199;49.138;7.414;2024-03-23T11:33:47;1.25;;;0.30;;
62202;SDS011;48199;49.138;7.414;2024-03-23T11:37:11;0.65;;;0.38;;
62202;SDS011;48199;49.138;7.414;2024-03-23T11:47:41;0.00;;;0.00;;
62202;SDS011;48199;49.138;7.414;2024-03-23T11:51:05;1.05;;;0.60;;
62202;SDS011;48199;49.138;7.414;2024-03-23T11:54:29;0.00;;;0.00;;
62202;SDS011;48199;49.138;7.414;2024-03-23T11:57:53;0.00;;;0.00;;
62202;SDS011;48199;49.138;7.414;2024-03-23T12:01:18;0.03;;;0.03;;
62202;SDS011;48199;49.138;7.414;2024-03-23T12:04:43;0.00;;;0.00;;
62202;SDS011;48199;49.138;7.414;2024-03-23T12:08:15;1.20;;;0.25;;
62202;SDS011;48199;49.138;7.414;2024-03-23T12:11:39;0.00;;;0.00;;
62202;SDS011;48199;49.138;7.414;2024-03-23T12:15:07;0.10;;;0.10;;
62202;SDS011;48199;49.138;7.414;2024-03-23T12:18:39;0.00;;;0.00;;
62202;SDS011;48199;49.138;7.414;2024-03-23T12:22:04;0.90;;;0.43;;
62202;SDS011;48199;49.138;7.414;2024-03-23T12:25:46;0.00;;;0.00;;
62202;SDS011;48199;49.138;7.414;2024-03-23T12:29:15;0.00;;;0.00;;
62202;SDS011;48199;49.138;7.414;2024-03-23T12:32:39;0.10;;;0.10;;
62202;SDS011;48199;49.138;7.414;2024-03-23T12:36:03;0.00;;;0.00;;
62202;SDS011;48199;49.138;7.414;2024-03-23T12:39:26;0.00;;;0.00;;
62202;SDS011;48199;49.138;7.414;2024-03-23T12:42:52;0.00;;;0.00;;
62202;SDS011;48199;49.138;7.414;2024-03-23T12:46:16;0.10;;;0.10;;
62202;SDS011;48199;49.138;7.414;2024-03-23T12:49:40;0.00;;;0.00;;
62202;SDS011;48199;49.138;7.414;2024-03-23T12:53:04;0.00;;;0.00;;
62202;SDS011;48199;49.138;7.414;2024-03-23T12:56:28;0.00;;;0.00;;
62202;SDS011;48199;49.138;7.414;2024-03-23T12:59:52;0.00;;;0.00;;
62202;SDS011;48199;49.138;7.414;2024-03-23T13:03:16;0.00;;;0.00;;
62202;SDS011;48199;49.138;7.414;2024-03-23T13:06:41;0.00;;;0.00;;
62202;SDS011;48199;49.138;7.414;2024-03-23T13:10:05;0.65;;;0.35;;
62202;SDS011;48199;49.138;7.414;2024-03-23T13:13:29;0.00;;;0.00;;
62202;SDS011;48199;49.138;7.414;2024-03-23T13:16:53;0.00;;;0.00;;
62202;SDS011;48199;49.138;7.414;2024-03-23T13:20:18;0.00;;;0.00;;
62202;SDS011;48199;49.138;7.414;2024-03-23T13:23:42;0.00;;;0.00;;
62202;SDS011;48199;49.138;7.414;2024-03-23T13:27:09;0.10;;;0.10;;
62202;SDS011;48199;49.138;7.414;2024-03-23T13:30:34;0.00;;;0.00;;
62202;SDS011;48199;49.138;7.414;2024-03-23T13:33:59;0.00;;;0.00;;
62202;SDS011;48199;49.138;7.414;2024-03-23T13:37:23;0.00;;;0.00;;
62202;SDS011;48199;49.138;7.414;2024-03-23T13:44:14;7.68;;;0.65;;
62202;SDS011;48199;49.138;7.414;2024-03-23T13:47:38;0.00;;;0.00;;
62202;SDS011;48199;49.138;7.414;2024-03-23T13:51:03;0.00;;;0.00;;
62202;SDS011;48199;49.138;7.414;2024-03-23T13:54:27;0.00;;;0.00;;
62202;SDS011;48199;49.138;7.414;2024-03-23T13:57:51;0.00;;;0.00;;
62202;SDS011;48199;49.138;7.414;2024-03-23T14:01:15;0.00;;;0.00;;
62202;SDS011;48199;49.138;7.414;2024-03-23T14:04:39;0.17;;;0.17;;
62202;SDS011;48199;49.138;7.414;2024-03-23T14:08:07;0.10;;;0.10;;
62202;SDS011;48199;49.138;7.414;2024-03-23T14:11:34;1.13;;;0.22;;
62202;SDS011;48199;49.138;7.414;2024-03-23T14:14:58;0.35;;;0.35;;
62202;SDS011;48199;49.138;7.414;2024-03-23T14:18:22;0.00;;;0.00;;
62202;SDS011;48199;49.138;7.414;2024-03-23T14:21:46;0.10;;;0.10;;
62202;SDS011;48199;49.138;7.414;2024-03-23T14:25:10;0.20;;;0.20;;
62202;SDS011;48199;49.138;7.414;2024-03-23T14:28:34;0.00;;;0.00;;
62202;SDS011;48199;49.138;7.414;2024-03-23T14:31:59;0.10;;;0.10;;
62202;SDS011;48199;49.138;7.414;2024-03-23T14:35:23;0.10;;;0.10;;
62202;SDS011;48199;49.138;7.414;2024-03-23T14:38:50;0.00;;;0.00;;
62202;SDS011;48199;49.138;7.414;2024-03-23T14:42:14;0.00;;;0.00;;
62202;SDS011;48199;49.138;7.414;2024-03-23T14:45:45;0.00;;;0.00;;
62202;SDS011;48199;49.138;7.414;2024-03-23T14:49:23;0.00;;;0.00;;
62202;SDS011;48199;49.138;7.414;2024-03-23T14:52:47;1.67;;;0.38;;
62202;SDS011;48199;49.138;7.414;2024-03-23T14:56:11;0.10;;;0.10;;
62202;SDS011;48199;49.138;7.414;2024-03-23T14:59:35;0.00;;;0.00;;
62202;SDS011;48199;49.138;7.414;2024-03-23T15:02:59;0.08;;;0.08;;
62202;SDS011;48199;49.138;7.414;2024-03-23T15:06:23;0.08;;;0.08;;
62202;SDS011;48199;49.138;7.414;2024-03-23T15:09:47;0.00;;;0.00;;
62202;SDS011;48199;49.138;7.414;2024-03-23T15:13:11;0.00;;;0.00;;
62202;SDS011;48199;49.138;7.414;2024-03-23T15:16:36;0.03;;;0.03;;
62202;SDS011;48199;49.138;7.414;2024-03-23T15:20:02;0.00;;;0.00;;
62202;SDS011;48199;49.138;7.414;2024-03-23T15:23:36;0.00;;;0.00;;
62202;SDS011;48199;49.138;7.414;2024-03-23T15:27:01;0.00;;;0.00;;
62202;SDS011;48199;49.138;7.414;2024-03-23T15:30:25;0.00;;;0.00;;
62202;SDS011;48199;49.138;7.414;2024-03-23T15:33:49;0.00;;;0.00;;
62202;SDS011;48199;49.138;7.414;2024-03-23T15:37:13;0.00;;;0.00;;
62202;SDS011;48199;49.138;7.414;2024-03-23T15:40:37;0.90;;;0.35;;
62202;SDS011;48199;49.138;7.414;2024-03-23T15:44:02;0.00;;;0.00;;
62202;SDS011;48199;49.138;7.414;2024-03-23T15:47:26;0.10;;;0.10;;
62202;SDS011;48199;49.138;7.414;2024-03-23T15:50:52;0.00;;;0.00;;
62202;SDS011;48199;49.138;7.414;2024-03-23T15:54:16;0.10;;;0.10;;
62202;SDS011;48199;49.138;7.414;2024-03-23T15:57:40;0.00;;;0.00;;
62202;SDS011;48199;49.138;7.414;2024-03-23T16:01:07;0.08;;;0.08;;
62202;SDS011;48199;49.138;7.414;2024-03-23T16:04:31;0.00;;;0.00;;
62202;SDS011;48199;49.138;7.414;2024-03-23T16:07:55;2.40;;;0.43;;
62202;SDS011;48199;49.138;7.414;2024-03-23T16:11:19;0.00;;;0.00;;
62202;SDS011;48199;49.138;7.414;2024-03-23T16:14:43;0.00;;;0.00;;
62202;SDS011;48199;49.138;7.414;2024-03-23T16:18:07;0.00;;;0.00;;
62202;SDS011;48199;49.138;7.414;2024-03-23T16:21:31;0.00;;;0.00;;
62202;SDS011;48199;49.138;7.414;2024-03-23T16:24:55;0.10;;;0.10;;
62202;SDS011;48199;49.138;7.414;2024-03-23T16:28:30;0.03;;;0.03;;
62202;SDS011;48199;49.138;7.414;2024-03-23T16:31:54;0.00;;;0.00;;
62202;SDS011;48199;49.138;7.414;2024-03-23T16:35:18;0.00;;;0.00;;
62202;SDS011;48199;49.138;7.414;2024-03-23T16:38:43;0.00;;;0.00;;
62202;SDS011;48199;49.138;7.414;2024-03-23T16:42:07;0.10;;;0.10;;
62202;SDS011;48199;49.138;7.414;2024-03-23T16:45:31;0.00;;;0.00;;
62202;SDS011;48199;49.138;7.414;2024-03-23T16:48:55;0.03;;;0.03;;
62202;SDS011;48199;49.138;7.414;2024-03-23T16:52:19;0.47;;;0.47;;
62202;SDS011;48199;49.138;7.414;2024-03-23T16:55:43;0.00;;;0.00;;
62202;SDS011;48199;49.138;7.414;2024-03-23T16:59:07;0.00;;;0.00;;
62202;SDS011;48199;49.138;7.414;2024-03-23T17:02:31;0.08;;;0.08;;
62202;SDS011;48199;49.138;7.414;2024-03-23T17:05:55;0.10;;;0.10;;
62202;SDS011;48199;49.138;7.414;2024-03-23T17:09:19;0.10;;;0.10;;
62202;SDS011;48199;49.138;7.414;2024-03-23T17:12:43;0.10;;;0.10;;
62202;SDS011;48199;49.138;7.414;2024-03-23T17:16:07;0.00;;;0.00;;
62202;SDS011;48199;49.138;7.414;2024-03-23T17:19:32;0.25;;;0.22;;
62202;SDS011;48199;49.138;7.414;2024-03-23T17:22:56;0.00;;;0.00;;
62202;SDS011;48199;49.138;7.414;2024-03-23T17:26:24;0.00;;;0.00;;
62202;SDS011;48199;49.138;7.414;2024-03-23T17:29:48;0.00;;;0.00;;
62202;SDS011;48199;49.138;7.414;2024-03-23T17:33:12;0.00;;;0.00;;
62202;SDS011;48199;49.138;7.414;2024-03-23T17:36:36;0.00;;;0.00;;
62202;SDS011;48199;49.138;7.414;2024-03-23T17:40:00;0.20;;;0.20;;
62202;SDS011;48199;49.138;7.414;2024-03-23T17:43:23;0.10;;;0.10;;
62202;SDS011;48199;49.138;7.414;2024-03-23T17:46:47;0.10;;;0.10;;
62202;SDS011;48199;49.138;7.414;2024-03-23T17:50:11;0.00;;;0.00;;
62202;SDS011;48199;49.138;7.414;2024-03-23T17:53:39;0.10;;;0.10;;
62202;SDS011;48199;49.138;7.414;2024-03-23T17:57:04;0.10;;;0.10;;
62202;SDS011;48199;49.138;7.414;2024-03-23T18:00:28;0.00;;;0.00;;
62202;SDS011;48199;49.138;7.414;2024-03-23T18:03:52;0.10;;;0.10;;
62202;SDS011;48199;49.138;7.414;2024-03-23T18:07:16;0.00;;;0.00;;
62202;SDS011;48199;49.138;7.414;2024-03-23T18:10:40;0.10;;;0.10;;
62202;SDS011;48199;49.138;7.414;2024-03-23T18:14:06;0.10;;;0.10;;
62202;SDS011;48199;49.138;7.414;2024-03-23T18:17:30;0.00;;;0.00;;
62202;SDS011;48199;49.138;7.414;2024-03-23T18:20:55;0.00;;;0.00;;
62202;SDS011;48199;49.138;7.414;2024-03-23T18:24:19;0.05;;;0.05;;
62202;SDS011;48199;49.138;7.414;2024-03-23T18:27:43;0.03;;;0.03;;
62202;SDS011;48199;49.138;7.414;2024-03-23T18:31:06;0.10;;;0.10;;
62202;SDS011;48199;49.138;7.414;2024-03-23T18:34:31;0.08;;;0.08;;
62202;SDS011;48199;49.138;7.414;2024-03-23T18:37:54;0.00;;;0.00;;
62202;SDS011;48199;49.138;7.414;2024-03-23T18:41:19;0.05;;;0.05;;